sensor_id;sensor_type;location;lat;lon;timestamp;pressure;altitude;pressure_sealevel;temperature;humidity
41467;BME280;27205;53.690;19.948;2022-11-30T00:02:09;101166.98;;;1.94;81.26
41467;BME280;27205;53.690;19.948;2022-11-30T00:07:13;101162.24;;;1.93;81.12
41467;BME280;27205;53.690;19.948;2022-11-30T00:12:16;101160.77;;;1.92;81.13
41467;BME280;27205;53.690;19.948;2022-11-30T00:17:19;101164.46;;;1.87;81.31
41467;BME280;27205;53.690;19.948;2022-11-30T00:22:23;101165.09;;;1.87;81.40
41467;BME280;27205;53.690;19.948;2022-11-30T00:27:26;101166.35;;;1.91;81.30
41467;BME280;27205;53.690;19.948;2022-11-30T00:32:30;101171.02;;;1.93;81.37
41467;BME280;27205;53.690;19.948;2022-11-30T00:37:34;101168.13;;;1.91;81.37
41467;BME280;27205;53.690;19.948;2022-11-30T00:42:38;101168.69;;;1.95;81.39
41467;BME280;27205;53.690;19.948;2022-11-30T00:47:41;101166.00;;;2.01;81.45
41467;BME280;27205;53.690;19.948;2022-11-30T00:52:44;101165.79;;;2.07;81.44
41467;BME280;27205;53.690;19.948;2022-11-30T00:57:48;101167.41;;;2.06;81.42
41467;BME280;27205;53.690;19.948;2022-11-30T01:02:55;101167.03;;;2.05;81.60
41467;BME280;27205;53.690;19.948;2022-11-30T01:08:01;101169.51;;;2.04;81.56
41467;BME280;27205;53.690;19.948;2022-11-30T01:13:05;101170.20;;;2.06;81.39
41467;BME280;27205;53.690;19.948;2022-11-30T01:18:09;101167.86;;;2.00;81.52
41467;BME280;27205;53.690;19.948;2022-11-30T01:23:12;101166.67;;;1.95;81.47
41467;BME280;27205;53.690;19.948;2022-11-30T01:28:15;101167.83;;;1.93;81.49
41467;BME280;27205;53.690;19.948;2022-11-30T01:33:19;101164.65;;;1.93;81.60
41467;BME280;27205;53.690;19.948;2022-11-30T01:38:22;101164.56;;;1.91;81.56
41467;BME280;27205;53.690;19.948;2022-11-30T01:54:08;101160.25;;;1.81;81.49
41467;BME280;27205;53.690;19.948;2022-11-30T01:59:13;101158.08;;;1.82;81.57
41467;BME280;27205;53.690;19.948;2022-11-30T02:04:23;101161.80;;;1.82;81.64
41467;BME280;27205;53.690;19.948;2022-11-30T02:09:30;101162.11;;;1.81;81.57
41467;BME280;27205;53.690;19.948;2022-11-30T02:14:48;101166.68;;;1.81;81.51
41467;BME280;27205;53.690;19.948;2022-11-30T02:30:21;101170.42;;;1.81;81.55
41467;BME280;27205;53.690;19.948;2022-11-30T02:35:31;101174.07;;;1.82;81.63
41467;BME280;27205;53.690;19.948;2022-11-30T02:40:35;101172.45;;;1.85;81.56
41467;BME280;27205;53.690;19.948;2022-11-30T02:51:08;101184.25;;;1.85;81.72
41467;BME280;27205;53.690;19.948;2022-11-30T02:56:14;101180.01;;;1.90;81.69
41467;BME280;27205;53.690;19.948;2022-11-30T03:01:20;101177.98;;;1.91;81.55
41467;BME280;27205;53.690;19.948;2022-11-30T03:06:24;101183.43;;;1.91;81.60
41467;BME280;27205;53.690;19.948;2022-11-30T03:11:27;101184.05;;;1.90;81.66
41467;BME280;27205;53.690;19.948;2022-11-30T03:16:31;101189.95;;;1.91;81.71
41467;BME280;27205;53.690;19.948;2022-11-30T03:21:35;101196.68;;;1.89;81.64
41467;BME280;27205;53.690;19.948;2022-11-30T03:26:39;101198.08;;;1.89;81.82
41467;BME280;27205;53.690;19.948;2022-11-30T03:31:42;101197.08;;;1.89;81.81
41467;BME280;27205;53.690;19.948;2022-11-30T03:36:45;101197.59;;;1.87;81.65
41467;BME280;27205;53.690;19.948;2022-11-30T03:41:49;101196.46;;;1.91;81.83
41467;BME280;27205;53.690;19.948;2022-11-30T03:46:53;101200.04;;;1.91;81.88
41467;BME280;27205;53.690;19.948;2022-11-30T03:51:59;101207.88;;;1.93;81.83
41467;BME280;27205;53.690;19.948;2022-11-30T03:57:03;101211.45;;;1.94;81.75
41467;BME280;27205;53.690;19.948;2022-11-30T04:02:06;101211.23;;;1.97;81.84
41467;BME280;27205;53.690;19.948;2022-11-30T04:07:10;101210.15;;;1.97;81.74
41467;BME280;27205;53.690;19.948;2022-11-30T04:12:13;101206.88;;;1.94;81.71
41467;BME280;27205;53.690;19.948;2022-11-30T04:17:16;101206.40;;;1.93;81.73
41467;BME280;27205;53.690;19.948;2022-11-30T04:22:20;101206.33;;;1.93;81.73
41467;BME280;27205;53.690;19.948;2022-11-30T04:27:23;101211.95;;;1.98;81.80
41467;BME280;27205;53.690;19.948;2022-11-30T04:32:26;101215.52;;;2.03;81.80
41467;BME280;27205;53.690;19.948;2022-11-30T04:37:30;101220.05;;;2.06;81.85
41467;BME280;27205;53.690;19.948;2022-11-30T04:42:33;101221.68;;;2.06;81.67
41467;BME280;27205;53.690;19.948;2022-11-30T04:47:37;101230.45;;;2.08;81.77
41467;BME280;27205;53.690;19.948;2022-11-30T04:52:40;101241.33;;;2.08;81.77
41467;BME280;27205;53.690;19.948;2022-11-30T04:57:45;101244.20;;;2.05;81.77
41467;BME280;27205;53.690;19.948;2022-11-30T05:02:48;101248.09;;;2.07;81.83
41467;BME280;27205;53.690;19.948;2022-11-30T05:07:56;101250.09;;;2.04;81.66
41467;BME280;27205;53.690;19.948;2022-11-30T05:13:00;101251.56;;;2.04;81.78
41467;BME280;27205;53.690;19.948;2022-11-30T05:18:04;101249.70;;;2.05;81.76
41467;BME280;27205;53.690;19.948;2022-11-30T05:23:07;101254.77;;;2.07;81.91
41467;BME280;27205;53.690;19.948;2022-11-30T05:28:11;101259.73;;;2.08;81.93
41467;BME280;27205;53.690;19.948;2022-11-30T05:33:15;101259.29;;;2.13;81.95
41467;BME280;27205;53.690;19.948;2022-11-30T05:38:18;101254.10;;;2.16;81.89
41467;BME280;27205;53.690;19.948;2022-11-30T05:43:21;101257.70;;;2.22;81.95
41467;BME280;27205;53.690;19.948;2022-11-30T05:48:25;101265.34;;;2.27;81.85
41467;BME280;27205;53.690;19.948;2022-11-30T05:53:28;101271.63;;;2.29;81.93
41467;BME280;27205;53.690;19.948;2022-11-30T05:58:32;101268.23;;;2.30;81.76
41467;BME280;27205;53.690;19.948;2022-11-30T06:03:36;101271.10;;;2.32;81.87
41467;BME280;27205;53.690;19.948;2022-11-30T06:08:40;101270.01;;;2.29;81.76
41467;BME280;27205;53.690;19.948;2022-11-30T06:13:43;101270.43;;;2.23;81.67
41467;BME280;27205;53.690;19.948;2022-11-30T06:18:47;101278.19;;;2.18;81.72
41467;BME280;27205;53.690;19.948;2022-11-30T06:23:51;101282.31;;;2.19;81.65
41467;BME280;27205;53.690;19.948;2022-11-30T06:28:55;101286.35;;;2.21;81.81
41467;BME280;27205;53.690;19.948;2022-11-30T06:33:58;101290.70;;;2.25;81.76
41467;BME280;27205;53.690;19.948;2022-11-30T06:39:02;101288.63;;;2.27;81.76
41467;BME280;27205;53.690;19.948;2022-11-30T06:44:09;101296.02;;;2.29;81.82
41467;BME280;27205;53.690;19.948;2022-11-30T06:49:12;101298.61;;;2.33;81.76
41467;BME280;27205;53.690;19.948;2022-11-30T06:54:16;101298.70;;;2.40;81.62
41467;BME280;27205;53.690;19.948;2022-11-30T06:59:19;101305.02;;;2.43;81.62
41467;BME280;27205;53.690;19.948;2022-11-30T07:04:23;101308.67;;;2.43;81.59
41467;BME280;27205;53.690;19.948;2022-11-30T07:09:26;101310.66;;;2.38;81.53
41467;BME280;27205;53.690;19.948;2022-11-30T07:14:30;101314.63;;;2.38;81.53
41467;BME280;27205;53.690;19.948;2022-11-30T07:19:33;101316.27;;;2.41;81.57
41467;BME280;27205;53.690;19.948;2022-11-30T07:24:37;101313.33;;;2.44;81.61
41467;BME280;27205;53.690;19.948;2022-11-30T07:29:59;101321.43;;;2.50;81.82
41467;BME280;27205;53.690;19.948;2022-11-30T07:35:03;101324.56;;;2.56;81.80
41467;BME280;27205;53.690;19.948;2022-11-30T07:40:07;101326.70;;;2.64;81.86
41467;BME280;27205;53.690;19.948;2022-11-30T07:45:13;101334.19;;;2.71;81.72
41467;BME280;27205;53.690;19.948;2022-11-30T07:50:17;101339.01;;;2.74;81.60
41467;BME280;27205;53.690;19.948;2022-11-30T07:55:20;101342.81;;;2.74;81.61
41467;BME280;27205;53.690;19.948;2022-11-30T08:00:25;101344.26;;;2.81;81.67
41467;BME280;27205;53.690;19.948;2022-11-30T08:05:29;101347.47;;;2.91;81.63
41467;BME280;27205;53.690;19.948;2022-11-30T08:10:32;101347.16;;;2.96;81.59
41467;BME280;27205;53.690;19.948;2022-11-30T08:15:36;101347.46;;;2.94;81.62
41467;BME280;27205;53.690;19.948;2022-11-30T08:20:40;101347.63;;;2.94;81.50
41467;BME280;27205;53.690;19.948;2022-11-30T08:25:51;101351.89;;;2.94;81.52
41467;BME280;27205;53.690;19.948;2022-11-30T08:30:59;101350.89;;;2.93;81.58
41467;BME280;27205;53.690;19.948;2022-11-30T08:41:19;101359.63;;;3.03;81.27
41467;BME280;27205;53.690;19.948;2022-11-30T08:46:24;101361.20;;;3.12;81.29
41467;BME280;27205;53.690;19.948;2022-11-30T08:51:49;101359.19;;;3.12;81.35
41467;BME280;27205;53.690;19.948;2022-11-30T08:57:17;101368.91;;;3.15;81.17
41467;BME280;27205;53.690;19.948;2022-11-30T09:02:20;101372.04;;;3.20;81.17
41467;BME280;27205;53.690;19.948;2022-11-30T09:07:24;101376.77;;;3.18;81.08
41467;BME280;27205;53.690;19.948;2022-11-30T09:12:28;101374.98;;;3.16;81.13
41467;BME280;27205;53.690;19.948;2022-11-30T09:17:31;101377.48;;;3.16;81.04
41467;BME280;27205;53.690;19.948;2022-11-30T09:22:35;101379.56;;;3.18;81.16
41467;BME280;27205;53.690;19.948;2022-11-30T09:27:39;101375.48;;;3.25;81.01
41467;BME280;27205;53.690;19.948;2022-11-30T09:32:42;101381.72;;;3.31;81.10
41467;BME280;27205;53.690;19.948;2022-11-30T09:37:45;101376.89;;;3.33;80.99
41467;BME280;27205;53.690;19.948;2022-11-30T09:53:44;101385.58;;;3.22;80.76
41467;BME280;27205;53.690;19.948;2022-11-30T10:04:20;101387.48;;;3.16;80.76
41467;BME280;27205;53.690;19.948;2022-11-30T10:09:56;101389.36;;;3.14;80.69
41467;BME280;27205;53.690;19.948;2022-11-30T10:15:39;101392.16;;;3.14;80.64
41467;BME280;27205;53.690;19.948;2022-11-30T10:20:54;101392.40;;;3.16;80.64
41467;BME280;27205;53.690;19.948;2022-11-30T10:26:06;101387.90;;;3.20;80.63
41467;BME280;27205;53.690;19.948;2022-11-30T10:31:12;101391.85;;;3.13;80.46
41467;BME280;27205;53.690;19.948;2022-11-30T10:36:26;101392.28;;;3.03;80.39
41467;BME280;27205;53.690;19.948;2022-11-30T10:41:40;101382.86;;;2.97;80.44
41467;BME280;27205;53.690;19.948;2022-11-30T10:46:49;101379.98;;;2.93;80.57
41467;BME280;27205;53.690;19.948;2022-11-30T10:52:00;101384.79;;;2.91;80.31
41467;BME280;27205;53.690;19.948;2022-11-30T10:57:06;101386.42;;;2.91;80.48
41467;BME280;27205;53.690;19.948;2022-11-30T11:02:33;101381.59;;;2.90;80.55
41467;BME280;27205;53.690;19.948;2022-11-30T11:08:00;101380.87;;;2.87;80.49
41467;BME280;27205;53.690;19.948;2022-11-30T11:13:35;101377.23;;;2.88;80.37
41467;BME280;27205;53.690;19.948;2022-11-30T11:18:53;101368.29;;;2.90;80.37
41467;BME280;27205;53.690;19.948;2022-11-30T11:23:57;101370.19;;;2.97;80.50
41467;BME280;27205;53.690;19.948;2022-11-30T11:29:01;101373.83;;;2.96;80.38
41467;BME280;27205;53.690;19.948;2022-11-30T11:34:22;101374.78;;;2.98;80.35
41467;BME280;27205;53.690;19.948;2022-11-30T11:39:26;101372.59;;;2.94;80.22
41467;BME280;27205;53.690;19.948;2022-11-30T11:44:30;101370.05;;;2.83;80.33
41467;BME280;27205;53.690;19.948;2022-11-30T11:49:35;101371.11;;;2.75;80.19
41467;BME280;27205;53.690;19.948;2022-11-30T12:00:04;101371.91;;;2.77;80.36
41467;BME280;27205;53.690;19.948;2022-11-30T12:05:42;101373.25;;;2.86;80.35
41467;BME280;27205;53.690;19.948;2022-11-30T12:16:24;101384.54;;;2.88;80.39
41467;BME280;27205;53.690;19.948;2022-11-30T12:26:46;101384.70;;;2.94;80.35
41467;BME280;27205;53.690;19.948;2022-11-30T12:32:02;101380.20;;;2.94;80.24
41467;BME280;27205;53.690;19.948;2022-11-30T12:54:00;101389.42;;;3.07;80.54
41467;BME280;27205;53.690;19.948;2022-11-30T13:04:37;101396.23;;;3.24;80.46
41467;BME280;27205;53.690;19.948;2022-11-30T13:15:27;101392.52;;;3.35;80.21
41467;BME280;27205;53.690;19.948;2022-11-30T13:47:37;101393.64;;;3.45;80.12
41467;BME280;27205;53.690;19.948;2022-11-30T13:58:05;101402.97;;;3.46;80.15
41467;BME280;27205;53.690;19.948;2022-11-30T14:08:36;101405.45;;;3.44;80.10
41467;BME280;27205;53.690;19.948;2022-11-30T14:13:40;101403.09;;;3.32;79.93
41467;BME280;27205;53.690;19.948;2022-11-30T14:18:45;101402.54;;;3.28;79.88
41467;BME280;27205;53.690;19.948;2022-11-30T14:24:13;101398.19;;;3.28;79.85
41467;BME280;27205;53.690;19.948;2022-11-30T14:29:24;101399.50;;;3.26;79.92
41467;BME280;27205;53.690;19.948;2022-11-30T14:34:50;101398.96;;;3.27;80.11
41467;BME280;27205;53.690;19.948;2022-11-30T14:39:54;101393.91;;;3.28;80.20
41467;BME280;27205;53.690;19.948;2022-11-30T14:44:58;101392.11;;;3.25;80.07
41467;BME280;27205;53.690;19.948;2022-11-30T14:50:04;101393.43;;;3.28;80.21
41467;BME280;27205;53.690;19.948;2022-11-30T14:55:49;101398.02;;;3.25;80.00
41467;BME280;27205;53.690;19.948;2022-11-30T15:00:54;101397.73;;;3.29;80.03
41467;BME280;27205;53.690;19.948;2022-11-30T15:06:01;101397.80;;;3.29;80.04
41467;BME280;27205;53.690;19.948;2022-11-30T15:11:08;101399.73;;;3.24;79.85
41467;BME280;27205;53.690;19.948;2022-11-30T15:16:30;101397.68;;;3.13;79.90
41467;BME280;27205;53.690;19.948;2022-11-30T15:21:34;101396.27;;;3.09;79.91
41467;BME280;27205;53.690;19.948;2022-11-30T15:38:37;101395.21;;;3.19;80.11
41467;BME280;27205;53.690;19.948;2022-11-30T15:43:41;101398.34;;;3.25;80.05
41467;BME280;27205;53.690;19.948;2022-11-30T15:48:44;101399.58;;;3.26;80.19
41467;BME280;27205;53.690;19.948;2022-11-30T15:53:51;101400.91;;;3.28;80.24
41467;BME280;27205;53.690;19.948;2022-11-30T15:59:05;101400.14;;;3.33;80.30
41467;BME280;27205;53.690;19.948;2022-11-30T16:04:08;101407.85;;;3.36;80.14
41467;BME280;27205;53.690;19.948;2022-11-30T16:09:27;101407.23;;;3.39;80.18
41467;BME280;27205;53.690;19.948;2022-11-30T16:14:34;101410.04;;;3.38;80.08
41467;BME280;27205;53.690;19.948;2022-11-30T16:19:37;101413.37;;;3.33;80.04
41467;BME280;27205;53.690;19.948;2022-11-30T16:24:41;101410.92;;;3.21;79.88
41467;BME280;27205;53.690;19.948;2022-11-30T16:29:45;101410.84;;;3.17;80.12
41467;BME280;27205;53.690;19.948;2022-11-30T16:34:54;101412.09;;;3.21;80.09
41467;BME280;27205;53.690;19.948;2022-11-30T16:39:57;101412.02;;;3.26;80.30
41467;BME280;27205;53.690;19.948;2022-11-30T16:45:01;101419.75;;;3.36;80.39
41467;BME280;27205;53.690;19.948;2022-11-30T16:50:05;101421.33;;;3.39;80.18
41467;BME280;27205;53.690;19.948;2022-11-30T16:55:22;101430.91;;;3.45;80.20
41467;BME280;27205;53.690;19.948;2022-11-30T17:00:25;101433.79;;;3.49;80.26
41467;BME280;27205;53.690;19.948;2022-11-30T17:05:30;101431.93;;;3.51;80.09
41467;BME280;27205;53.690;19.948;2022-11-30T17:10:35;101430.35;;;3.49;80.14
41467;BME280;27205;53.690;19.948;2022-11-30T17:15:39;101421.81;;;3.54;80.09
41467;BME280;27205;53.690;19.948;2022-11-30T17:20:42;101422.91;;;3.60;80.32
41467;BME280;27205;53.690;19.948;2022-11-30T17:25:46;101424.86;;;3.63;80.16
41467;BME280;27205;53.690;19.948;2022-11-30T17:30:51;101422.52;;;3.60;80.16
41467;BME280;27205;53.690;19.948;2022-11-30T17:35:54;101418.39;;;3.58;80.24
41467;BME280;27205;53.690;19.948;2022-11-30T17:41:05;101421.05;;;3.60;80.31
41467;BME280;27205;53.690;19.948;2022-11-30T17:46:12;101420.90;;;3.61;80.19
41467;BME280;27205;53.690;19.948;2022-11-30T17:51:17;101422.15;;;3.62;80.40
41467;BME280;27205;53.690;19.948;2022-11-30T17:56:21;101430.79;;;3.62;80.26
41467;BME280;27205;53.690;19.948;2022-11-30T18:01:26;101436.85;;;3.60;80.20
41467;BME280;27205;53.690;19.948;2022-11-30T18:06:29;101438.95;;;3.63;80.12
41467;BME280;27205;53.690;19.948;2022-11-30T18:11:33;101453.29;;;3.68;80.16
41467;BME280;27205;53.690;19.948;2022-11-30T18:16:37;101455.69;;;3.62;80.27
41467;BME280;27205;53.690;19.948;2022-11-30T18:21:41;101454.92;;;3.64;80.20
41467;BME280;27205;53.690;19.948;2022-11-30T18:26:48;101457.79;;;3.65;80.13
41467;BME280;27205;53.690;19.948;2022-11-30T18:31:51;101458.48;;;3.65;80.23
41467;BME280;27205;53.690;19.948;2022-11-30T18:36:55;101459.19;;;3.63;80.09
41467;BME280;27205;53.690;19.948;2022-11-30T18:41:58;101461.38;;;3.61;80.27
41467;BME280;27205;53.690;19.948;2022-11-30T18:47:02;101461.97;;;3.53;79.95
41467;BME280;27205;53.690;19.948;2022-11-30T18:52:05;101467.86;;;3.48;80.05
41467;BME280;27205;53.690;19.948;2022-11-30T18:57:09;101475.58;;;3.45;80.17
41467;BME280;27205;53.690;19.948;2022-11-30T19:02:12;101475.89;;;3.47;80.04
41467;BME280;27205;53.690;19.948;2022-11-30T19:07:16;101478.77;;;3.46;80.02
41467;BME280;27205;53.690;19.948;2022-11-30T19:12:19;101481.34;;;3.49;80.03
41467;BME280;27205;53.690;19.948;2022-11-30T19:17:22;101475.90;;;3.51;80.00
41467;BME280;27205;53.690;19.948;2022-11-30T19:22:26;101477.52;;;3.49;79.91
41467;BME280;27205;53.690;19.948;2022-11-30T19:27:33;101476.50;;;3.45;79.86
41467;BME280;27205;53.690;19.948;2022-11-30T19:32:38;101480.46;;;3.44;79.88
41467;BME280;27205;53.690;19.948;2022-11-30T19:37:41;101478.98;;;3.44;79.89
41467;BME280;27205;53.690;19.948;2022-11-30T19:42:44;101483.13;;;3.45;79.96
41467;BME280;27205;53.690;19.948;2022-11-30T19:47:48;101487.46;;;3.43;79.89
41467;BME280;27205;53.690;19.948;2022-11-30T19:52:52;101492.77;;;3.44;80.02
41467;BME280;27205;53.690;19.948;2022-11-30T19:57:55;101497.59;;;3.46;79.95
41467;BME280;27205;53.690;19.948;2022-11-30T20:02:59;101493.09;;;3.50;79.98
41467;BME280;27205;53.690;19.948;2022-11-30T20:08:03;101499.56;;;3.54;80.07
41467;BME280;27205;53.690;19.948;2022-11-30T20:13:07;101502.14;;;3.56;79.99
41467;BME280;27205;53.690;19.948;2022-11-30T20:18:10;101501.98;;;3.58;80.05
41467;BME280;27205;53.690;19.948;2022-11-30T20:23:14;101499.50;;;3.60;79.99
41467;BME280;27205;53.690;19.948;2022-11-30T20:28:17;101502.76;;;3.56;80.03
41467;BME280;27205;53.690;19.948;2022-11-30T20:33:20;101503.45;;;3.55;79.93
41467;BME280;27205;53.690;19.948;2022-11-30T20:38:24;101507.65;;;3.53;80.12
41467;BME280;27205;53.690;19.948;2022-11-30T20:43:27;101507.16;;;3.45;79.92
41467;BME280;27205;53.690;19.948;2022-11-30T20:48:32;101506.35;;;3.34;79.81
41467;BME280;27205;53.690;19.948;2022-11-30T20:53:35;101507.59;;;3.32;79.80
41467;BME280;27205;53.690;19.948;2022-11-30T20:58:38;101510.08;;;3.33;79.91
41467;BME280;27205;53.690;19.948;2022-11-30T21:03:43;101509.94;;;3.36;80.04
41467;BME280;27205;53.690;19.948;2022-11-30T21:08:46;101513.08;;;3.43;80.15
41467;BME280;27205;53.690;19.948;2022-11-30T21:13:50;101513.40;;;3.48;80.02
41467;BME280;27205;53.690;19.948;2022-11-30T21:18:55;101511.45;;;3.51;79.90
41467;BME280;27205;53.690;19.948;2022-11-30T21:24:01;101509.83;;;3.48;79.67
41467;BME280;27205;53.690;19.948;2022-11-30T21:29:12;101511.67;;;3.44;79.72
41467;BME280;27205;53.690;19.948;2022-11-30T21:34:15;101518.58;;;3.39;79.64
41467;BME280;27205;53.690;19.948;2022-11-30T21:39:19;101512.34;;;3.35;79.54
41467;BME280;27205;53.690;19.948;2022-11-30T21:44:23;101509.06;;;3.33;79.72
41467;BME280;27205;53.690;19.948;2022-11-30T21:49:26;101511.47;;;3.32;79.67
41467;BME280;27205;53.690;19.948;2022-11-30T21:54:30;101507.43;;;3.31;79.69
41467;BME280;27205;53.690;19.948;2022-11-30T21:59:33;101507.50;;;3.30;79.64
41467;BME280;27205;53.690;19.948;2022-11-30T22:04:37;101507.33;;;3.27;79.56
41467;BME280;27205;53.690;19.948;2022-11-30T22:09:40;101508.20;;;3.28;79.68
41467;BME280;27205;53.690;19.948;2022-11-30T22:14:44;101510.69;;;3.32;79.56
41467;BME280;27205;53.690;19.948;2022-11-30T22:19:47;101507.30;;;3.38;79.58
41467;BME280;27205;53.690;19.948;2022-11-30T22:24:51;101504.19;;;3.38;79.58
41467;BME280;27205;53.690;19.948;2022-11-30T22:29:57;101505.66;;;3.37;79.58
41467;BME280;27205;53.690;19.948;2022-11-30T22:35:00;101507.73;;;3.32;79.45
41467;BME280;27205;53.690;19.948;2022-11-30T22:40:04;101508.40;;;3.23;79.56
41467;BME280;27205;53.690;19.948;2022-11-30T22:45:08;101506.42;;;3.18;79.30
41467;BME280;27205;53.690;19.948;2022-11-30T22:50:12;101506.89;;;3.18;79.31
41467;BME280;27205;53.690;19.948;2022-11-30T22:55:15;101502.84;;;3.13;79.27
41467;BME280;27205;53.690;19.948;2022-11-30T23:00:19;101506.02;;;3.11;79.44
41467;BME280;27205;53.690;19.948;2022-11-30T23:05:23;101504.71;;;3.14;79.21
41467;BME280;27205;53.690;19.948;2022-11-30T23:10:26;101506.74;;;3.16;79.21
41467;BME280;27205;53.690;19.948;2022-11-30T23:15:29;101507.52;;;3.17;79.23
41467;BME280;27205;53.690;19.948;2022-11-30T23:20:34;101508.79;;;3.22;79.19
41467;BME280;27205;53.690;19.948;2022-11-30T23:25:37;101499.45;;;3.22;79.08
41467;BME280;27205;53.690;19.948;2022-11-30T23:30:41;101501.71;;;3.22;79.21
41467;BME280;27205;53.690;19.948;2022-11-30T23:35:44;101502.70;;;3.17;79.08
41467;BME280;27205;53.690;19.948;2022-11-30T23:40:48;101498.23;;;3.09;79.15
41467;BME280;27205;53.690;19.948;2022-11-30T23:45:51;101493.76;;;3.04;79.12
41467;BME280;27205;53.690;19.948;2022-11-30T23:50:54;101492.83;;;3.01;79.15
41467;BME280;27205;53.690;19.948;2022-11-30T23:56:07;101486.59;;;2.98;79.17
